createdAt,value
2023-05-05T00:01:02.401Z,44.90
2023-05-05T00:02:14.809Z,44.90
2023-05-05T00:03:25.809Z,44.90
2023-05-05T00:04:31.389Z,44.90
2023-05-05T00:05:39.996Z,44.90
2023-05-05T00:06:46.663Z,45.00
2023-05-05T00:07:49.081Z,45.00
2023-05-05T00:08:51.916Z,45.00
2023-05-05T00:09:57.812Z,45.00
2023-05-05T00:11:02.425Z,45.50
2023-05-05T00:12:05.311Z,45.00
2023-05-05T00:13:32.524Z,45.10
2023-05-05T00:14:47.931Z,45.20
2023-05-05T00:15:57.665Z,45.20
2023-05-05T00:17:04.336Z,45.20
2023-05-05T00:18:07.938Z,45.20
2023-05-05T00:19:19.294Z,45.20
2023-05-05T00:20:27.614Z,45.10
2023-05-05T00:21:39.890Z,45.20
2023-05-05T00:22:45.631Z,45.10
2023-05-05T00:23:49.745Z,45.10
2023-05-05T00:24:58.000Z,45.10
2023-05-05T00:26:00.915Z,45.10
2023-05-05T00:27:05.586Z,45.10
2023-05-05T00:28:08.381Z,45.10
2023-05-05T00:29:23.928Z,45.10
2023-05-05T00:30:27.817Z,45.10
2023-05-05T00:31:30.705Z,45.10
2023-05-05T00:34:36.422Z,45.20
2023-05-05T00:35:42.697Z,45.10
2023-05-05T00:36:56.022Z,45.70
2023-05-05T00:38:01.074Z,45.10
2023-05-05T00:39:06.931Z,45.20
2023-05-05T00:40:15.986Z,45.30
2023-05-05T00:41:18.449Z,45.20
2023-05-05T00:42:24.430Z,45.30
2023-05-05T00:43:42.642Z,45.30
2023-05-05T00:45:22.662Z,45.40
2023-05-05T00:46:40.212Z,45.10
2023-05-05T00:47:46.450Z,45.40
2023-05-05T00:49:01.372Z,45.50
2023-05-05T00:50:37.421Z,45.60
2023-05-05T00:51:46.072Z,45.60
2023-05-05T00:52:49.439Z,45.70
2023-05-05T00:53:55.884Z,45.70
2023-05-05T00:55:03.307Z,45.80
2023-05-05T00:56:55.976Z,45.70
2023-05-05T00:57:43.414Z,45.80
2023-05-05T00:58:46.822Z,45.90
2023-05-05T01:00:10.506Z,46.00
2023-05-05T01:01:15.861Z,46.10
2023-05-05T01:02:19.276Z,46.10
2023-05-05T01:03:22.251Z,46.10
2023-05-05T01:04:39.197Z,46.10
2023-05-05T01:05:58.585Z,46.00
2023-05-05T01:07:42.045Z,46.00
2023-05-05T01:09:39.017Z,46.10
2023-05-05T01:11:04.723Z,46.20
2023-05-05T01:12:37.592Z,46.10
2023-05-05T01:14:16.529Z,46.20
2023-05-05T01:15:40.425Z,46.30
2023-05-05T01:16:58.928Z,46.40
2023-05-05T01:18:27.236Z,46.40
2023-05-05T01:19:55.616Z,46.30
2023-05-05T01:21:06.959Z,46.40
2023-05-05T01:22:11.789Z,46.30
2023-05-05T01:23:29.861Z,46.20
2023-05-05T01:24:51.334Z,46.20
2023-05-05T01:26:08.015Z,46.10
2023-05-05T01:28:05.027Z,46.10
2023-05-05T01:29:32.562Z,46.10
2023-05-05T01:31:06.430Z,46.10
2023-05-05T01:32:14.891Z,46.50
2023-05-05T01:33:27.412Z,46.00
2023-05-05T01:35:01.703Z,46.10
2023-05-05T01:36:12.410Z,46.00
2023-05-05T01:37:22.936Z,46.10
2023-05-05T01:38:32.478Z,46.20
2023-05-05T01:39:36.798Z,46.10
2023-05-05T01:40:52.803Z,46.30
2023-05-05T01:42:00.209Z,46.50
2023-05-05T01:43:07.461Z,46.80
2023-05-05T01:44:13.378Z,46.80
2023-05-05T01:45:18.206Z,46.80
2023-05-05T01:46:24.163Z,47.00
2023-05-05T01:47:27.902Z,47.00
2023-05-05T01:48:33.306Z,47.30
2023-05-05T01:49:37.437Z,46.90
2023-05-05T01:50:41.871Z,46.60
2023-05-05T01:51:47.244Z,46.60
2023-05-05T01:52:51.361Z,46.70
2023-05-05T01:53:57.636Z,46.60
2023-05-05T01:55:01.962Z,46.70
2023-05-05T01:56:05.705Z,46.60
2023-05-05T01:57:10.133Z,46.60
2023-05-05T01:58:13.743Z,46.70
2023-05-05T01:59:18.184Z,46.60
2023-05-05T02:00:21.819Z,46.70
2023-05-05T02:01:26.979Z,46.70
2023-05-05T02:02:33.875Z,46.70
2023-05-05T02:03:39.098Z,46.80
2023-05-05T02:04:46.213Z,46.70
2023-05-05T02:05:50.089Z,46.80
2023-05-05T02:06:54.351Z,46.80
2023-05-05T02:08:00.103Z,46.70
2023-05-05T02:09:03.793Z,46.80
2023-05-05T02:10:08.098Z,46.80
2023-05-05T02:11:12.256Z,46.80
2023-05-05T02:12:16.493Z,46.80
2023-05-05T02:13:21.855Z,46.80
2023-05-05T02:14:27.164Z,46.90
2023-05-05T02:15:30.870Z,46.90
2023-05-05T02:16:33.933Z,46.80
2023-05-05T02:17:36.949Z,46.80
2023-05-05T02:18:40.566Z,46.80
2023-05-05T02:19:46.153Z,46.90
2023-05-05T02:20:51.275Z,46.90
2023-05-05T02:21:53.813Z,47.20
2023-05-05T02:22:56.515Z,47.10
2023-05-05T02:23:59.057Z,47.00
2023-05-05T02:25:01.606Z,47.00
2023-05-05T02:26:07.794Z,47.00
2023-05-05T02:27:11.509Z,47.10
2023-05-05T02:28:20.201Z,47.20
2023-05-05T02:29:29.610Z,47.20
2023-05-05T02:30:36.008Z,47.10
2023-05-05T02:31:45.352Z,47.00
2023-05-05T02:32:55.279Z,46.90
2023-05-05T02:34:01.932Z,46.90
2023-05-05T02:35:19.947Z,46.90
2023-05-05T02:36:27.640Z,47.40
2023-05-05T02:37:36.070Z,47.00
2023-05-05T02:38:43.414Z,47.20
2023-05-05T02:40:02.877Z,47.20
2023-05-05T02:41:12.187Z,47.40
2023-05-05T02:42:19.026Z,47.60
2023-05-05T02:43:24.901Z,47.60
2023-05-05T02:44:30.028Z,47.70
2023-05-05T02:45:33.174Z,47.70
2023-05-05T02:46:39.004Z,47.70
2023-05-05T02:47:41.830Z,48.30
2023-05-05T02:48:44.964Z,47.90
2023-05-05T02:49:47.447Z,47.90
2023-05-05T02:50:49.892Z,47.90
2023-05-05T02:51:59.871Z,47.90
2023-05-05T02:53:07.398Z,48.10
2023-05-05T02:54:11.064Z,48.20
2023-05-05T02:55:14.000Z,48.30
2023-05-05T02:56:40.818Z,48.40
2023-05-05T02:57:51.867Z,48.50
2023-05-05T02:59:04.269Z,48.40
2023-05-05T03:00:24.127Z,48.50
2023-05-05T03:01:35.992Z,48.50
2023-05-05T03:02:45.129Z,48.50
2023-05-05T03:04:11.589Z,48.60
2023-05-05T03:05:23.431Z,48.70
2023-05-05T03:06:28.525Z,48.70
2023-05-05T03:07:40.728Z,48.70
2023-05-05T03:08:52.490Z,48.80
2023-05-05T03:10:02.897Z,48.90
2023-05-05T03:11:10.086Z,48.90
2023-05-05T03:12:21.953Z,48.90
2023-05-05T03:13:43.995Z,48.90
2023-05-05T03:14:54.978Z,48.90
2023-05-05T03:15:58.675Z,48.90
2023-05-05T03:17:03.018Z,48.90
2023-05-05T03:18:08.322Z,49.00
2023-05-05T03:19:13.499Z,49.00
2023-05-05T03:20:20.612Z,49.00
2023-05-05T03:21:24.940Z,49.10
2023-05-05T03:22:28.926Z,49.10
2023-05-05T03:23:32.904Z,49.10
2023-05-05T03:24:35.939Z,49.00
2023-05-05T03:25:47.509Z,49.10
2023-05-05T03:27:16.532Z,49.10
2023-05-05T03:28:19.020Z,49.10
2023-05-05T03:29:21.508Z,49.00
2023-05-05T03:30:24.349Z,48.90
2023-05-05T03:31:28.534Z,48.80
2023-05-05T03:32:34.398Z,48.70
2023-05-05T03:33:40.073Z,48.70
2023-05-05T03:34:42.617Z,48.60
2023-05-05T03:35:45.067Z,48.60
2023-05-05T03:36:48.988Z,48.70
2023-05-05T03:37:52.190Z,48.70
2023-05-05T03:38:54.651Z,48.90
2023-05-05T03:39:58.010Z,48.90
2023-05-05T03:41:03.934Z,49.00
2023-05-05T03:42:07.520Z,49.10
2023-05-05T03:43:11.462Z,49.20
2023-05-05T03:44:13.955Z,49.40
2023-05-05T03:45:17.550Z,49.40
2023-05-05T03:46:20.136Z,49.40
2023-05-05T03:47:24.777Z,49.40
2023-05-05T03:48:28.650Z,49.30
2023-05-05T03:49:31.174Z,49.40
2023-05-05T03:50:34.282Z,49.40
2023-05-05T03:51:37.669Z,49.50
2023-05-05T03:52:43.609Z,49.50
2023-05-05T03:53:46.652Z,49.40
2023-05-05T03:54:51.902Z,49.50
2023-05-05T03:55:54.427Z,49.60
2023-05-05T03:56:56.865Z,49.70
2023-05-05T03:57:59.251Z,49.70
2023-05-05T03:59:02.559Z,49.70
2023-05-05T04:00:11.876Z,49.80
2023-05-05T04:01:20.074Z,49.90
2023-05-05T04:02:22.617Z,50.00
2023-05-05T04:03:25.569Z,50.10
2023-05-05T04:04:28.899Z,50.10
2023-05-05T04:05:31.642Z,50.20
2023-05-05T04:06:34.411Z,50.20
2023-05-05T04:07:37.110Z,50.20
2023-05-05T04:08:39.694Z,50.20
2023-05-05T04:09:44.605Z,50.20
2023-05-05T04:10:47.846Z,50.10
2023-05-05T04:11:51.089Z,50.20
2023-05-05T04:12:53.783Z,50.20
2023-05-05T04:13:56.211Z,50.10
2023-05-05T04:14:59.669Z,50.20
2023-05-05T04:16:02.228Z,50.40
2023-05-05T04:17:06.437Z,50.40
2023-05-05T04:18:09.299Z,50.30
2023-05-05T04:19:13.092Z,50.40
2023-05-05T04:20:16.144Z,50.30
2023-05-05T04:21:18.699Z,50.20
2023-05-05T04:22:21.469Z,50.20
2023-05-05T04:23:24.040Z,50.40
2023-05-05T04:24:27.405Z,50.40
2023-05-05T04:25:30.853Z,50.40
2023-05-05T04:26:33.470Z,50.40
2023-05-05T04:27:36.013Z,50.50
2023-05-05T04:28:38.932Z,50.50
2023-05-05T04:29:41.334Z,50.60
2023-05-05T04:30:43.919Z,50.70
2023-05-05T04:31:46.537Z,50.70
2023-05-05T04:32:49.025Z,50.80
2023-05-05T04:33:51.762Z,50.70
2023-05-05T04:34:54.362Z,50.60
2023-05-05T04:35:58.442Z,50.70
2023-05-05T04:37:01.188Z,50.60
2023-05-05T04:38:05.232Z,50.70
2023-05-05T04:39:08.766Z,50.70
2023-05-05T04:40:12.054Z,50.80
2023-05-05T04:41:15.550Z,50.90
2023-05-05T04:42:19.139Z,51.00
2023-05-05T04:43:21.530Z,51.10
2023-05-05T04:44:24.213Z,51.10
2023-05-05T04:45:26.688Z,50.90
2023-05-05T04:46:29.161Z,50.60
2023-05-05T04:47:31.793Z,50.10
2023-05-05T04:48:34.515Z,49.50
2023-05-05T04:49:37.146Z,49.50
2023-05-05T04:50:39.693Z,49.10
2023-05-05T04:51:42.405Z,48.90
2023-05-05T04:52:45.182Z,48.80
2023-05-05T04:53:47.571Z,48.60
2023-05-05T04:54:49.854Z,48.30
2023-05-05T04:55:53.551Z,48.20
2023-05-05T04:56:55.968Z,48.00
2023-05-05T04:57:58.425Z,48.00
2023-05-05T04:59:00.887Z,47.90
2023-05-05T05:00:06.588Z,47.80
2023-05-05T05:01:09.476Z,48.00
2023-05-05T05:02:11.932Z,48.00
2023-05-05T05:03:14.493Z,47.90
2023-05-05T05:04:18.813Z,47.70
2023-05-05T05:05:21.620Z,47.90
2023-05-05T05:06:24.272Z,48.20
2023-05-05T05:07:26.781Z,48.10
2023-05-05T05:08:29.247Z,48.10
2023-05-05T05:09:31.948Z,47.90
2023-05-05T05:10:35.882Z,47.60
2023-05-05T05:11:38.393Z,48.70
2023-05-05T05:12:41.344Z,48.80
2023-05-05T05:13:43.753Z,48.90
2023-05-05T05:14:47.002Z,48.90
2023-05-05T05:15:49.627Z,49.10
2023-05-05T05:16:52.687Z,49.10
2023-05-05T05:17:57.907Z,49.30
2023-05-05T05:19:01.827Z,49.40
2023-05-05T05:20:07.971Z,49.40
2023-05-05T05:21:11.918Z,49.40
2023-05-05T05:22:14.401Z,49.50
2023-05-05T05:23:18.511Z,49.50
2023-05-05T05:24:21.836Z,49.00
2023-05-05T05:25:25.130Z,48.70
2023-05-05T05:26:28.025Z,48.60
2023-05-05T05:27:30.694Z,48.60
2023-05-05T05:28:33.675Z,48.60
2023-05-05T05:29:36.155Z,48.60
2023-05-05T05:30:38.533Z,48.60
2023-05-05T05:31:42.584Z,48.70
2023-05-05T05:32:45.099Z,48.60
2023-05-05T05:33:47.647Z,48.60
2023-05-05T05:34:51.014Z,48.50
2023-05-05T05:35:53.509Z,49.00
2023-05-05T05:36:57.090Z,48.50
2023-05-05T05:37:59.625Z,48.40
2023-05-05T05:39:04.075Z,48.10
2023-05-05T05:40:08.458Z,47.70
2023-05-05T05:41:11.522Z,47.80
2023-05-05T05:42:14.883Z,47.60
2023-05-05T05:43:17.367Z,48.20
2023-05-05T05:44:20.216Z,48.20
2023-05-05T05:45:23.344Z,48.30
2023-05-05T05:46:25.936Z,48.50
2023-05-05T05:47:28.479Z,48.30
2023-05-05T05:48:32.151Z,48.80
2023-05-05T05:49:35.063Z,48.10
2023-05-05T05:50:37.463Z,47.10
2023-05-05T05:51:39.980Z,48.60
2023-05-05T05:52:42.363Z,48.90
2023-05-05T05:53:45.614Z,49.40
2023-05-05T05:54:48.187Z,49.30
2023-05-05T05:55:50.746Z,49.10
2023-05-05T05:56:53.212Z,49.60
2023-05-05T05:57:56.411Z,49.60
2023-05-05T05:58:59.023Z,49.80
2023-05-05T06:00:02.324Z,49.80
2023-05-05T06:01:14.437Z,49.80
2023-05-05T06:02:17.125Z,50.00
2023-05-05T06:03:19.782Z,50.10
2023-05-05T06:04:22.939Z,50.60
2023-05-05T06:05:25.481Z,50.10
2023-05-05T06:06:28.043Z,50.20
2023-05-05T06:07:30.576Z,50.20
2023-05-05T06:08:33.297Z,50.20
2023-05-05T06:09:37.939Z,49.20
2023-05-05T06:10:41.941Z,48.50
2023-05-05T06:11:48.032Z,48.70
2023-05-05T06:12:50.594Z,48.70
2023-05-05T06:13:53.038Z,48.50
2023-05-05T06:14:55.443Z,48.30
2023-05-05T06:15:57.876Z,48.10
2023-05-05T06:17:00.316Z,47.90
2023-05-05T06:18:04.565Z,47.90
2023-05-05T06:19:09.782Z,47.90
2023-05-05T06:20:14.883Z,47.70
2023-05-05T06:21:20.482Z,47.10
2023-05-05T06:22:23.030Z,47.20
2023-05-05T06:23:25.943Z,47.10
2023-05-05T06:24:33.510Z,47.30
2023-05-05T06:25:36.664Z,47.00
2023-05-05T06:26:38.985Z,46.80
2023-05-05T06:27:41.424Z,46.50
2023-05-05T06:28:43.755Z,46.50
2023-05-05T06:29:46.995Z,46.60
2023-05-05T06:30:49.357Z,46.70
2023-05-05T06:31:51.793Z,46.80
2023-05-05T06:32:54.249Z,47.00
2023-05-05T06:33:56.740Z,47.00
2023-05-05T06:34:59.090Z,47.00
2023-05-05T06:36:02.393Z,47.00
2023-05-05T06:37:04.748Z,46.90
2023-05-05T06:38:07.170Z,46.90
2023-05-05T06:39:09.762Z,46.90
2023-05-05T06:40:13.375Z,46.90
2023-05-05T06:41:15.860Z,46.50
2023-05-05T06:42:18.351Z,46.90
2023-05-05T06:43:21.936Z,48.80
2023-05-05T06:44:31.102Z,49.10
2023-05-05T06:45:33.810Z,49.70
2023-05-05T06:46:36.413Z,49.70
2023-05-05T06:47:38.943Z,49.80
2023-05-05T06:48:41.835Z,50.10
2023-05-05T06:49:44.251Z,48.60
2023-05-05T06:50:46.675Z,49.40
2023-05-05T06:51:49.141Z,49.60
2023-05-05T06:52:53.181Z,49.60
2023-05-05T06:53:55.632Z,49.80
2023-05-05T06:54:58.099Z,49.90
2023-05-05T06:56:00.711Z,49.80
2023-05-05T06:57:03.195Z,49.70
2023-05-05T06:58:05.889Z,49.80
2023-05-05T06:59:08.889Z,49.80
2023-05-05T07:00:12.810Z,49.80
2023-05-05T07:01:16.151Z,49.80
2023-05-05T07:02:18.552Z,49.90
2023-05-05T07:03:20.982Z,50.10
2023-05-05T07:04:23.650Z,50.00
2023-05-05T07:05:26.817Z,49.90
2023-05-05T07:06:29.264Z,49.90
2023-05-05T07:07:32.593Z,50.10
2023-05-05T07:08:35.098Z,50.00
2023-05-05T07:09:37.792Z,50.50
2023-05-05T07:10:40.299Z,50.50
2023-05-05T07:11:42.792Z,50.20
2023-05-05T07:12:45.396Z,50.20
2023-05-05T07:13:49.243Z,49.20
2023-05-05T07:14:54.703Z,49.80
2023-05-05T07:16:06.243Z,50.00
2023-05-05T07:17:08.883Z,50.10
2023-05-05T07:18:11.397Z,50.20
2023-05-05T07:19:13.760Z,50.50
2023-05-05T07:20:16.227Z,49.20
2023-05-05T07:21:18.778Z,50.10
2023-05-05T07:22:23.894Z,50.50
2023-05-05T07:23:44.828Z,50.60
2023-05-05T07:24:48.142Z,50.50
2023-05-05T07:25:54.214Z,50.30
2023-05-05T07:27:02.721Z,50.80
2023-05-05T07:28:05.425Z,48.90
2023-05-05T07:29:29.090Z,48.90
2023-05-05T07:30:33.268Z,49.70
2023-05-05T07:31:35.976Z,50.40
2023-05-05T07:32:38.519Z,48.90
2023-05-05T07:33:42.228Z,50.20
2023-05-05T07:34:44.765Z,50.40
2023-05-05T07:35:47.570Z,49.70
2023-05-05T07:36:50.716Z,49.30
2023-05-05T07:37:54.193Z,50.10
2023-05-05T07:38:56.931Z,49.70
2023-05-05T07:40:00.686Z,49.50
2023-05-05T07:41:06.641Z,49.20
2023-05-05T07:42:33.946Z,49.60
2023-05-05T07:43:38.802Z,48.80
2023-05-05T07:44:58.951Z,48.60
2023-05-05T07:46:05.476Z,50.10
2023-05-05T07:47:10.654Z,49.70
2023-05-05T07:48:13.307Z,49.40
2023-05-05T07:49:16.255Z,49.60
2023-05-05T07:50:20.481Z,49.80
2023-05-05T07:51:23.291Z,49.80
2023-05-05T07:52:43.542Z,49.80
2023-05-05T07:53:50.946Z,49.70
2023-05-05T07:54:54.674Z,49.80
2023-05-05T07:55:57.572Z,50.00
2023-05-05T07:57:01.361Z,50.40
2023-05-05T07:58:04.376Z,50.20
2023-05-05T07:59:09.296Z,49.70
2023-05-05T08:00:20.032Z,48.90
2023-05-05T08:01:25.266Z,49.00
2023-05-05T08:02:31.309Z,50.20
2023-05-05T08:03:35.516Z,49.70
2023-05-05T08:04:39.412Z,49.40
2023-05-05T08:05:43.163Z,50.20
2023-05-05T08:06:48.085Z,50.40
2023-05-05T08:07:53.409Z,48.80
2023-05-05T08:09:02.426Z,48.50
2023-05-05T08:10:11.137Z,47.80
2023-05-05T08:11:14.907Z,47.70
2023-05-05T08:12:19.991Z,47.60
2023-05-05T08:13:25.365Z,48.50
2023-05-05T08:14:30.422Z,47.90
2023-05-05T08:15:33.778Z,48.20
2023-05-05T08:16:36.638Z,48.40
2023-05-05T08:17:57.192Z,48.30
2023-05-05T08:19:02.158Z,49.40
2023-05-05T08:20:07.748Z,48.20
2023-05-05T08:21:35.148Z,49.40
2023-05-05T08:22:38.293Z,48.40
2023-05-05T08:23:41.646Z,49.40
2023-05-05T08:25:19.742Z,48.50
2023-05-05T08:26:25.186Z,49.10
2023-05-05T08:27:28.433Z,49.20
2023-05-05T08:28:33.651Z,48.40
2023-05-05T08:29:36.028Z,48.10
2023-05-05T08:30:38.534Z,48.30
2023-05-05T08:31:41.522Z,48.00
2023-05-05T08:32:44.826Z,47.80
2023-05-05T08:33:47.236Z,47.80
2023-05-05T08:34:49.594Z,47.60
2023-05-05T08:35:52.088Z,47.20
2023-05-05T08:36:54.683Z,47.30
2023-05-05T08:37:59.284Z,47.20
2023-05-05T08:39:05.408Z,47.80
2023-05-05T08:40:14.472Z,47.40
2023-05-05T08:41:23.282Z,48.70
2023-05-05T08:42:37.216Z,48.60
2023-05-05T08:43:50.679Z,48.00
2023-05-05T08:44:58.952Z,49.50
2023-05-05T08:46:02.700Z,49.10
2023-05-05T08:47:06.131Z,49.30
2023-05-05T08:48:10.060Z,48.90
2023-05-05T08:49:23.973Z,47.80
2023-05-05T08:50:30.358Z,48.30
2023-05-05T08:51:44.573Z,49.70
2023-05-05T08:52:54.247Z,48.60
2023-05-05T08:54:01.887Z,47.80
2023-05-05T08:55:44.560Z,48.70
2023-05-05T08:56:53.063Z,47.50
2023-05-05T08:58:07.262Z,48.00
2023-05-05T08:59:17.070Z,48.90
2023-05-05T09:00:20.761Z,48.10
2023-05-05T09:01:24.429Z,48.00
2023-05-05T09:02:30.180Z,48.70
2023-05-05T09:03:33.682Z,48.30
2023-05-05T09:04:43.250Z,48.30
2023-05-05T09:05:46.409Z,48.70
2023-05-05T09:06:52.058Z,48.40
2023-05-05T09:07:57.702Z,48.10
2023-05-05T09:09:02.611Z,48.30
2023-05-05T09:10:17.874Z,47.70
2023-05-05T09:11:22.856Z,47.50
2023-05-05T09:12:29.182Z,48.00
2023-05-05T09:13:32.451Z,47.70
2023-05-05T09:14:35.756Z,47.70
2023-05-05T09:15:39.078Z,47.50
2023-05-05T09:16:43.848Z,47.90
2023-05-05T09:17:47.211Z,47.70
2023-05-05T09:18:49.812Z,47.70
2023-05-05T09:20:09.092Z,48.70
2023-05-05T09:21:25.469Z,48.10
2023-05-05T09:22:46.861Z,48.80
2023-05-05T09:24:11.394Z,48.90
2023-05-05T09:25:14.745Z,49.10
2023-05-05T09:26:17.947Z,48.80
2023-05-05T09:27:23.788Z,48.30
2023-05-05T09:28:29.234Z,48.20
2023-05-05T09:29:31.905Z,48.70
2023-05-05T09:30:37.708Z,48.80
2023-05-05T09:31:40.216Z,48.60
2023-05-05T09:32:47.761Z,47.80
2023-05-05T09:33:50.705Z,47.90
2023-05-05T09:35:01.005Z,47.80
2023-05-05T09:36:03.735Z,47.80
2023-05-05T09:37:06.722Z,48.40
2023-05-05T09:38:12.261Z,49.10
2023-05-05T09:39:19.703Z,49.20
2023-05-05T09:40:22.629Z,48.90
2023-05-05T09:41:42.060Z,47.90
2023-05-05T09:42:45.419Z,48.30
2023-05-05T09:43:51.887Z,47.50
2023-05-05T09:44:54.798Z,47.50
2023-05-05T09:46:09.416Z,47.80
2023-05-05T09:47:22.341Z,48.40
2023-05-05T09:48:33.566Z,47.80
2023-05-05T09:49:38.668Z,47.80
2023-05-05T09:50:45.425Z,49.40
2023-05-05T09:51:48.146Z,47.90
2023-05-05T09:53:00.850Z,49.10
2023-05-05T09:54:04.037Z,48.80
2023-05-05T09:55:08.029Z,49.30
2023-05-05T09:56:12.991Z,49.20
2023-05-05T09:57:29.951Z,49.30
2023-05-05T09:58:32.647Z,49.60
2023-05-05T09:59:36.154Z,49.30
2023-05-05T10:00:42.276Z,49.30
2023-05-05T10:01:46.347Z,49.40
2023-05-05T10:02:49.414Z,48.70
2023-05-05T10:03:52.503Z,48.60
2023-05-05T10:05:04.915Z,49.20
2023-05-05T10:06:08.100Z,48.70
2023-05-05T10:07:24.073Z,48.90
2023-05-05T10:08:30.325Z,49.10
2023-05-05T10:09:33.068Z,49.00
2023-05-05T10:10:36.199Z,48.80
2023-05-05T10:11:41.705Z,48.00
2023-05-05T10:12:46.553Z,48.00
2023-05-05T10:13:49.920Z,48.10
2023-05-05T10:14:56.690Z,48.20
2023-05-05T10:16:01.242Z,48.00
2023-05-05T10:17:06.075Z,47.50
2023-05-05T10:18:09.049Z,48.40
2023-05-05T10:19:14.550Z,48.80
2023-05-05T10:20:19.283Z,49.00
2023-05-05T10:21:21.911Z,49.20
2023-05-05T10:22:26.333Z,49.20
2023-05-05T10:23:57.392Z,49.20
2023-05-05T10:25:09.748Z,48.50
2023-05-05T10:26:14.344Z,47.80
2023-05-05T10:27:20.472Z,48.20
2023-05-05T10:28:53.610Z,49.10
2023-05-05T10:30:06.838Z,49.20
2023-05-05T10:31:25.147Z,49.00
2023-05-05T10:32:56.009Z,48.20
2023-05-05T10:34:17.276Z,47.70
2023-05-05T10:35:27.507Z,48.20
2023-05-05T10:36:31.732Z,49.00
2023-05-05T10:37:37.141Z,48.50
2023-05-05T10:38:40.054Z,48.30
2023-05-05T10:39:44.923Z,48.20
2023-05-05T10:40:48.956Z,48.50
2023-05-05T10:41:52.148Z,49.00
2023-05-05T10:42:54.980Z,47.90
2023-05-05T10:43:59.574Z,47.60
2023-05-05T10:45:03.477Z,47.80
2023-05-05T10:46:07.447Z,47.90
2023-05-05T10:47:10.942Z,47.90
2023-05-05T10:48:25.149Z,47.80
2023-05-05T10:49:46.405Z,47.40
2023-05-05T10:50:53.453Z,47.40
2023-05-05T10:52:12.219Z,47.30
2023-05-05T10:53:28.556Z,47.30
2023-05-05T10:54:46.942Z,47.30
2023-05-05T10:56:05.920Z,47.70
2023-05-05T10:57:12.882Z,47.40
2023-05-05T10:58:55.540Z,47.70
2023-05-05T11:00:04.688Z,47.90
2023-05-05T11:01:10.719Z,47.70
2023-05-05T11:02:29.897Z,47.80
2023-05-05T11:03:40.855Z,47.40
2023-05-05T11:04:44.239Z,47.40
2023-05-05T11:06:07.790Z,47.40
2023-05-05T11:07:14.718Z,47.50
2023-05-05T11:08:27.272Z,47.30
2023-05-05T11:09:30.167Z,47.70
2023-05-05T11:10:44.838Z,47.60
2023-05-05T11:12:04.714Z,47.30
2023-05-05T11:13:07.384Z,47.20
2023-05-05T11:14:22.647Z,47.00
2023-05-05T11:15:28.145Z,46.90
2023-05-05T11:16:47.907Z,46.90
2023-05-05T11:17:53.479Z,46.90
2023-05-05T11:18:56.812Z,46.90
2023-05-05T11:20:03.946Z,46.80
2023-05-05T11:21:19.363Z,46.70
2023-05-05T11:22:23.021Z,46.90
2023-05-05T11:23:26.397Z,46.80
2023-05-05T11:24:31.981Z,46.90
2023-05-05T11:25:36.346Z,46.70
2023-05-05T11:26:50.806Z,46.70
2023-05-05T11:28:18.973Z,46.80
2023-05-05T11:29:21.650Z,47.10
2023-05-05T11:30:24.306Z,47.10
2023-05-05T11:31:27.460Z,47.40
2023-05-05T11:32:30.841Z,47.70
2023-05-05T11:33:38.595Z,47.00
2023-05-05T11:34:51.053Z,47.20
2023-05-05T11:35:59.688Z,47.50
2023-05-05T11:37:07.776Z,47.40
2023-05-05T11:38:10.855Z,47.20
2023-05-05T11:39:46.092Z,47.00
2023-05-05T11:40:50.420Z,47.30
2023-05-05T11:42:09.483Z,47.40
2023-05-05T11:43:13.207Z,47.10
2023-05-05T11:44:21.011Z,47.40
2023-05-05T11:45:24.598Z,47.00
2023-05-05T11:46:27.247Z,47.10
2023-05-05T11:47:32.192Z,47.80
2023-05-05T11:48:47.628Z,47.20
2023-05-05T11:49:50.277Z,47.50
2023-05-05T11:50:53.653Z,47.50
2023-05-05T11:52:09.163Z,47.70
2023-05-05T11:53:14.487Z,47.60
2023-05-05T11:54:21.389Z,47.70
2023-05-05T11:55:23.961Z,47.70
2023-05-05T11:56:26.504Z,47.70
2023-05-05T11:57:29.848Z,47.50
2023-05-05T11:58:32.626Z,47.60
2023-05-05T11:59:37.366Z,47.30
2023-05-05T12:00:42.594Z,47.20
2023-05-05T12:01:48.095Z,47.20
2023-05-05T12:02:57.323Z,47.70
2023-05-05T12:04:00.369Z,47.50
2023-05-05T12:05:03.450Z,47.40
2023-05-05T12:06:08.219Z,47.40
2023-05-05T12:07:21.262Z,47.10
2023-05-05T12:08:24.866Z,47.20
2023-05-05T12:09:27.918Z,47.20
2023-05-05T12:10:30.914Z,47.20
2023-05-05T12:11:33.566Z,47.50
2023-05-05T12:12:40.927Z,47.50
2023-05-05T12:13:44.380Z,47.90
2023-05-05T12:14:53.097Z,47.70
2023-05-05T12:15:55.784Z,47.70
2023-05-05T12:17:03.022Z,47.90
2023-05-05T12:18:06.560Z,47.80
2023-05-05T12:19:11.658Z,47.50
2023-05-05T12:20:14.607Z,47.80
2023-05-05T12:21:18.113Z,47.10
2023-05-05T12:22:26.521Z,47.60
2023-05-05T12:23:30.184Z,47.30
2023-05-05T12:24:32.792Z,47.50
2023-05-05T12:25:36.916Z,47.50
2023-05-05T12:26:40.104Z,47.40
2023-05-05T12:27:52.713Z,47.50
2023-05-05T12:28:56.163Z,47.60
2023-05-05T12:30:12.785Z,47.40
2023-05-05T12:31:16.059Z,47.50
2023-05-05T12:32:26.038Z,47.20
2023-05-05T12:33:29.394Z,47.00
2023-05-05T12:34:32.943Z,47.00
2023-05-05T12:35:36.010Z,47.30
2023-05-05T12:36:40.051Z,47.40
2023-05-05T12:37:43.695Z,47.10
2023-05-05T12:38:46.317Z,47.40
2023-05-05T12:39:49.606Z,47.50
2023-05-05T12:40:53.813Z,47.30
2023-05-05T12:42:03.345Z,47.50
2023-05-05T12:43:06.034Z,47.40
2023-05-05T12:44:08.594Z,47.00
2023-05-05T12:45:19.702Z,47.00
2023-05-05T12:46:22.581Z,46.70
2023-05-05T12:47:32.550Z,46.80
2023-05-05T12:48:38.235Z,46.90
2023-05-05T12:49:51.532Z,46.80
2023-05-05T12:50:54.058Z,45.80
2023-05-05T12:51:57.673Z,46.90
2023-05-05T12:53:00.301Z,46.90
2023-05-05T12:54:05.419Z,46.70
2023-05-05T12:55:10.157Z,47.00
2023-05-05T12:56:44.010Z,46.50
2023-05-05T12:58:04.749Z,46.90
2023-05-05T12:59:29.985Z,46.70
2023-05-05T13:00:33.388Z,46.70
2023-05-05T13:01:37.517Z,46.60
2023-05-05T13:02:40.249Z,46.40
2023-05-05T13:03:43.319Z,46.50
2023-05-05T13:04:54.018Z,46.50
2023-05-05T13:05:56.478Z,46.60
2023-05-05T13:07:31.481Z,46.40
2023-05-05T13:08:44.384Z,46.60
2023-05-05T13:09:50.084Z,45.30
2023-05-05T13:10:59.565Z,46.30
2023-05-05T13:12:07.073Z,45.60
2023-05-05T13:13:09.825Z,45.60
2023-05-05T13:14:12.349Z,46.10
2023-05-05T13:16:53.340Z,45.60
2023-05-05T13:18:02.709Z,45.50
2023-05-05T13:19:05.385Z,45.70
2023-05-05T13:20:10.123Z,45.20
2023-05-05T13:21:13.536Z,45.80
2023-05-05T13:22:16.131Z,46.10
2023-05-05T13:23:19.445Z,46.10
2023-05-05T13:24:31.631Z,46.10
2023-05-05T13:25:41.280Z,46.20
2023-05-05T13:26:43.770Z,46.20
2023-05-05T13:27:46.257Z,46.70
2023-05-05T13:28:49.026Z,46.60
2023-05-05T13:29:51.567Z,46.60
2023-05-05T13:30:54.418Z,46.70
2023-05-05T13:31:57.735Z,47.10
2023-05-05T13:33:00.591Z,46.90
2023-05-05T13:34:03.186Z,47.00
2023-05-05T13:35:08.141Z,46.90
2023-05-05T13:36:12.853Z,46.70
2023-05-05T13:37:15.498Z,46.90
2023-05-05T13:38:18.018Z,47.20
2023-05-05T13:39:20.458Z,47.00
2023-05-05T13:40:25.627Z,47.00
2023-05-05T13:41:28.293Z,47.00
2023-05-05T13:42:31.272Z,46.90
2023-05-05T13:43:33.724Z,47.20
2023-05-05T13:44:36.147Z,46.60
2023-05-05T13:45:42.060Z,46.60
2023-05-05T13:46:44.793Z,46.70
2023-05-05T13:47:48.153Z,46.30
2023-05-05T13:48:56.034Z,46.20
2023-05-05T13:49:59.120Z,46.60
2023-05-05T13:51:01.700Z,46.50
2023-05-05T13:52:04.252Z,46.40
2023-05-05T13:53:06.825Z,46.10
2023-05-05T13:54:09.783Z,45.80
2023-05-05T13:55:12.367Z,46.20
2023-05-05T13:56:15.076Z,46.20
2023-05-05T13:57:17.709Z,46.70
2023-05-05T13:58:20.130Z,46.20
2023-05-05T13:59:22.820Z,46.10
2023-05-05T14:00:25.315Z,46.20
2023-05-05T14:01:28.010Z,45.90
2023-05-05T14:02:30.891Z,45.90
2023-05-05T14:03:33.447Z,45.90
2023-05-05T14:04:36.285Z,45.50
2023-05-05T14:05:42.478Z,45.30
2023-05-05T14:06:45.168Z,45.70
2023-05-05T14:07:47.927Z,45.90
2023-05-05T14:08:50.481Z,45.60
2023-05-05T14:09:52.897Z,46.00
2023-05-05T14:10:56.310Z,46.10
2023-05-05T14:12:00.116Z,46.10
2023-05-05T14:13:03.623Z,46.00
2023-05-05T14:14:06.134Z,46.00
2023-05-05T14:15:09.083Z,46.00
2023-05-05T14:16:12.710Z,46.10
2023-05-05T14:17:15.266Z,46.00
2023-05-05T14:18:17.672Z,46.10
2023-05-05T14:19:20.160Z,46.10
2023-05-05T14:20:23.203Z,46.00
2023-05-05T14:21:28.336Z,46.10
2023-05-05T14:22:34.619Z,46.20
2023-05-05T14:23:40.629Z,46.10